METAR / TAF

Die METAR- und TAF-Liste ist aus technischen Gründen (Verfügbarkeit, Update-Zyklen) nicht für ein Meteo-Briefing gedacht. Benutzen Sie stattdessen skybriefing der Skyguide  oder das TAMSI (MeteoSchweiz-eigene Meteo Selfbriefing-Plattform für Firmen aus der Aviatik; Anfragen über das

Kontaktformular

METAR Schweiz

METAR     LSZH 242120Z 15001KT 9999 -DZ FEW025 SCT050 BKN090 09/07
               Q1015 TEMPO RA=
METAR     LSZH 242150Z 13003KT 9999 VCSH FEW025 BKN044 BKN090 09/07
               Q1015 NOSIG=
METAR     LSGG 242120Z 28004KT 9999 FEW040 BKN060 11/07 Q1016 NOSIG=
METAR     LSGG 242150Z VRB01KT 9999 FEW040 BKN065 10/08 Q1015 NOSIG=
METAR     LFSB 242130Z VRB03KT 9999 BKN033 BKN043 10/09 Q1015 TEMPO
               4000 RA BKN013=
METAR     LSZB 242120Z AUTO VRB02KT 9999 BKN070 SCT090 12/06 Q1015=
METAR     LSZB 242150Z AUTO VRB04KT 9999 DZ BKN060 SCT080 08/05
               Q1015=
METAR     LSZA 242120Z AUTO 00000KT 9999 OVC046 08/06 Q1020=
METAR     LSZA 242150Z AUTO VRB01KT 9999 SCT047 OVC070 09/06 Q1020=
METAR     LSZG 242120Z AUTO 22004KT 9999 -RA OVC050 09/08 Q1016=
METAR     LSZG 242150Z AUTO 24002KT 9999 -RA SCT060 BKN080 09/08
               Q1015=
METAR     LSZR 242120Z AUTO 25003KT 160V290 9999 BKN046 BKN110
               10/06 Q1015=
METAR     LSZR 242150Z AUTO VRB02KT 9999 NSC 09/06 Q1015=
METAR     LSGS 242120Z AUTO VRB01KT 9999 OVC090 08/02 Q1017=
METAR     LSGS 242150Z AUTO VRB01KT 9999 OVC080 08/02 Q1016=
METAR     LSGC 242120Z AUTO 27002KT 9999 BKN024 07/05 Q1015=
METAR     LSGC 242150Z AUTO 00000KT 9999 OVC028 07/05 Q1014=
METAR     LSZC 242120Z AUTO 26003KT 240V300 9999 OVC100 07/04 Q1016=
METAR     LSZC 242150Z AUTO 20004KT 9999 OVC100 07/04 Q1015=
METAR RRA LSZL 242150Z AUTO 00000KT 9999NDV BKN056 BKN063 07/05
               Q1020 RMK=
METAR     LSZL 242120Z NIL=
METAR     LSZS 242120Z AUTO 18004KT 140V230 9999 SCT024 BKN110
               01/M02 Q1018=
METAR     LSZS 242150Z AUTO 19005KT 9999 BKN025 SCT100 M00/M03
               Q1018=
METAR RRA LSMA 242150Z AUTO VRB02KT 9999NDV FEW086 OVC100 07/05
               Q1015 RMK=
METAR     LSMA 242120Z NIL=
METAR RRA LSMD 242150Z AUTO 00000KT 9999NDV FEW035 OVC100 09/06
               Q1015 RMK=
METAR     LSMD 242120Z NIL=
METAR RRA LSME 242150Z AUTO VRB02KT 9999NDV OVC099 07/05 Q1016 RMK=
METAR     LSME 242120Z NIL=
METAR RRA LSMM 242150Z AUTO VRB02KT 9999NDV OVC100 04/03 Q1015 RMK=
METAR     LSMM 242120Z NIL=
METAR RRA LSMP 242150Z AUTO 23005KT 9999NDV SCT054 OVC067 11/08
               Q1015 RMK=
METAR     LSMP 242120Z NIL=
METAR     LSMS 242120Z AUTO VRB01KT 9999 OVC090 08/02 Q1017=
METAR     LSMS 242150Z AUTO VRB01KT 9999 OVC080 08/02 Q1016=
Aktualisiert am Freitag, 24. November 2017, 23:12 Uhr

TAF Schweiz

TAF     LSZH 242025Z 2421/2603 VRB03KT 9999 FEW030 SCT040 BKN050
             TX08/2510Z TN02/2524Z PROB30 TEMPO 2421/2503 RA BECMG
             2508/2510 26013KT TEMPO 2509/2514 28015G30KT RA
             SCT020 BKN040 BECMG 2514/2516 25008KT PROB40 TEMPO
             2514/2524 SHRA SCT030TCU PROB30 TEMPO 2520/2524 4500
             TSGS SCT020CB BKN045 PROB40 TEMPO 2523/2601 4000
             SHRASN SCT010 BKN030 PROB40 TEMPO 2601/2603 3000 SHSN
             SCT010 BKN020=
TAF RRA LSGG 242025Z 2421/2603 22060KT 9999 -RA FEW040 BKN050
             TX09/2503Z TN02/2518Z TEMPO 2507/2514 4900 RA PROB40
             TEMPO 2506/2510 23010G20KT PROB40 TEMPO 2517/2521
             30010G20KT=
TAF AAA LFSB 241742Z 2418/2518 VRB03KT 8000 -RA SCT020 BKN035
             PROB40 TEMPO 2418/2421 4000 RA BKN013 BECMG 2504/2506
             26010KT PROB40 TEMPO 2506/2511 4000 RA BKN013
             FM251100 27012KT 9999 SCT020 TEMPO 2511/2518
             26017G30KT 4000 -SHRA SCT020TCU PROB40 TEMPO
             2511/2515 26022G40KT 2000 SHRA SCT020CB=
TAF     LFSB 241700Z 2418/2518 VRB03KT 9999 -RA FEW030 BKN040 BECMG
             2504/2506 26010KT PROB40 TEMPO 2506/2511 4000 RA
             BKN013 FM251100 27012KT 9999 SCT020 TEMPO 2511/2518
             26017G30KT 4000 -SHRA SCT020TCU PROB40 TEMPO
             2511/2515 26022G40KT 2000 SHRA SCT020CB=
TAF AAA LSGS 242006Z 2420/2424 CNL=
TAF     LSGS 241425Z 2415/2424 07005KT 9999 BKN100=
TAF AAF LSZA 242054Z 2420/2424 CNL=
TAF     LSZA 241425Z 2415/2424 VRB03KT 9999 BKN060=
TAF AAC LSZG 242054Z 2420/2424 CNL=
TAF     LSZG 241425Z 2415/2424 25007KT 9999 SCT050 BKN070 BECMG
             2421/2424 BKN013 PROB30 TEMPO 2421/2424 RA=
TAF     LSZL 241725Z 2418/2503 VRB03KT 9999 BKN060 PROB30 TEMPO
             2422/2503 3000 BR=
TAF AAD LSZR 242054Z 2420/2424 CNL=
TAF     LSZR 241425Z 2415/2424 08005KT CAVOK TEMPO 2417/2424 9999
             SCT070=
TAF AAB LSGC 242007Z 2420/2424 CNL=
TAF     LSGC 241425Z 2415/2424 22010KT 9999 BKN030 PROB40 TEMPO
             2416/2424 4900 RA=
TAF AAE LSZC 242054Z 2420/2424 CNL=
TAF     LSZC 241425Z 2415/2424 VRB03KT 9999 SCT100 TEMPO 2415/2420
             CAVOK=
TAF AAE LSZS 242054Z 2420/2424 CNL=
TAF     LSZS 241425Z 2415/2424 VRB03KT 9999 FEW080 TX04/2415Z TEMPO
             2415/2421 CAVOK=
TAF     LSMA 241625Z 2417/2523 VRB03KT 9999 FEW050 BKN070 TEMPO
             2510/2515 06015G30KT RA SCT020 BKN040 PROB40 TEMPO
             2515/2523 SHRA SCT030TCU PROB30 TEMPO 2521/2523 4500
             TSGS SCT020CB BKN045=
TAF     LSMD 241625Z 2417/2523 VRB03KT 9999 FEW050 BKN070 BECMG
             2508/2510 26010KT TEMPO 2509/2514 28015G30KT RA
             SCT020 BKN040 BECMG 2514/2516 25008KT PROB40 TEMPO
             2514/2523 SHRA SCT030TCU PROB30 TEMPO 2520/2523 4500
             TSGS SCT020CB BKN045=
TAF     LSME 241625Z 2417/2523 VRB03KT 9999 FEW050 BKN070 BECMG
             2508/2510 26010KT TEMPO 2509/2514 28015G30KT RA
             SCT020 BKN040 BECMG 2514/2516 25005KT PROB40 TEMPO
             2514/2523 SHRA SCT030TCU PROB30 TEMPO 2520/2523 4500
             TSGS SCT020CB BKN045=
TAF     LSMM 241625Z 2417/2523 VRB03KT 9999 FEW070 BKN100 BECMG
             2509/2511 RA SCT020 BKN030 BECMG 2518/2520 4500 RASN
             PROB30 TEMPO 2520/2523 4500 TSGS SCT020CB BKN045=
TAF     LSMP 241625Z 2417/2523 23007KT 9999 FEW040 BKN070 TEMPO
             2507/2514 RA=
Aktualisiert am Freitag, 24. November 2017, 23:03 Uhr